Airfield :
LOGIN :

Register | Disclaimer

   EN    FR    IT 

 










Legend :    VFR   Marginal VFR   IFR   Intensive IFR   Very Intensive IFR
Visi :
Ceiling :
>= 8 km
>= 3000ft
5 to 8 km
1000 to 3000 ft
1500m to 5 km
500 to 1000 ft
800 to 1500m
200 to 500 ft
< 800m
< 200 ft
Symbols :   Thunderstorms  Fog  Heavy snow  Heavy precipitations  Wind > 20 kt
SIGMETs :     Misc.  Thunderstorms  Icing  Turbulence  Mountain Waves  Volcanic Ashes







- Airport Elevation : 336 ft
- IATA code : GCI
- Download approach charts


EGJB - Guernsey

CURRENT METAR :
  • 261220Z 08016KT CAVOK 12/05 Q1019

EXPIRED METARs :
  • 261150Z 08016KT CAVOK 12/05 Q1019
  • 261120Z 08017KT CAVOK 12/05 Q1019
  • 261050Z 08016KT CAVOK 11/04 Q1019
  • 261020Z 08014KT CAVOK 11/05 Q1019
  • 260950Z 07013KT CAVOK 11/05 Q1019

TAF TAF EGJB
Valid from the 26 at 12:00 until the 26 at 21:00 UTC


261059Z 2612/2621 08014KT CAVOK
ATIS : +44 1481 238 957
No reported NOTAMs for that airfield.
1 SIGMET reported for the Brest FIR (LFRR) :
 
Severe turbulence
LFRR SIGMET 2 VALID 261000/261400 LFPW
LFRR BREST FIR/UIR SEV TURB FCST WI N4630 W00130 - N4545 W00145 - N4630 W00600 - N4715 W00600 FL160/270 INTSF=



MET'MAP, your aeronautical weather chart ! - Copyright ORBIFLY December 2007 - Disclaimer

ORBIFLY MET'MAP TEAM :

Programming & Development : Alexandra Zaïnal
Concept & Development : Baudouin d'Aumeries
Co-Development & Prog : Marc-Olivier Méhu
Technical & hardware support : Manuel Goepfert

Contact : metmap@orbifly.com




SOURCES & CREDITS :

   NOAA